Sandy River Plt, Maine
Current Conditions -  °F | °C
As of 12:52 PM on Friday 31 Oct 2014 (Local Time) from KBML Reporting Station
Overcast Overcast  
Wind Chill: 46°   Ceiling: 4400
Heat Index: 46°   Visibility: 10mi
Dew Point: 26°   Wind: 3mph
Humidity: 46%   Direction: 190°S
Pressure: 29.99"   Gusts: NA
Location:  44.9631°N, 70.6504°W
Report Text: KBML 311652Z AUTO 19003KT 10SM OVC044 08/M03 A2999 RMK AO2 SLP165 T00781033
Loading
Personal Weather Stations






























Interactive Weather Map
Tropical Storm Tracking
New forecast layout! Learn more

10-Day Weather Forecast

Advertisements
Track Severe Weather on mobile